createdAt,value
2019-01-15T00:00:08.383Z,68.06
2019-01-15T00:02:37.451Z,68.30
2019-01-15T00:05:09.294Z,68.25
2019-01-15T00:07:38.455Z,68.49
2019-01-15T00:10:07.841Z,68.50
2019-01-15T00:12:36.939Z,68.55
2019-01-15T00:15:06.867Z,68.58
2019-01-15T00:17:35.913Z,68.94
2019-01-15T00:20:06.135Z,68.94
2019-01-15T00:22:35.117Z,68.99
2019-01-15T00:25:04.842Z,69.43
2019-01-15T00:27:33.855Z,69.56
2019-01-15T00:30:03.262Z,69.77
2019-01-15T00:32:32.266Z,69.64
2019-01-15T00:35:01.343Z,69.85
2019-01-15T00:37:30.497Z,69.95
2019-01-15T00:39:59.548Z,70.19
2019-01-15T00:42:28.534Z,70.19
2019-01-15T00:44:57.529Z,70.43
2019-01-15T00:47:26.523Z,70.26
2019-01-15T00:49:55.490Z,70.33
2019-01-15T00:52:24.495Z,70.32
2019-01-15T00:54:53.475Z,70.28
2019-01-15T00:57:22.553Z,70.32
2019-01-15T00:59:51.639Z,70.30
2019-01-15T01:02:20.658Z,70.32
2019-01-15T01:04:49.668Z,70.33
2019-01-15T01:07:18.817Z,70.42
2019-01-15T01:09:48.151Z,70.33
2019-01-15T01:12:22.137Z,70.40
2019-01-15T01:14:46.746Z,70.31
2019-01-15T01:17:16.350Z,70.50
2019-01-15T01:19:45.391Z,70.73
2019-01-15T01:22:14.469Z,70.70
2019-01-15T01:24:43.477Z,70.60
2019-01-15T01:27:16.884Z,70.82
2019-01-15T01:29:46.628Z,70.83
2019-01-15T01:32:15.683Z,70.95
2019-01-15T01:34:44.675Z,70.97
2019-01-15T01:37:13.763Z,71.14
2019-01-15T01:39:42.726Z,71.25
2019-01-15T01:42:11.919Z,71.41
2019-01-15T01:44:40.959Z,71.42
2019-01-15T01:47:10.010Z,71.86
2019-01-15T01:49:39.065Z,72.00
2019-01-15T01:52:08.099Z,72.07
2019-01-15T01:54:37.215Z,72.09
2019-01-15T01:57:06.239Z,72.04
2019-01-15T01:59:35.247Z,72.14
2019-01-15T02:02:04.435Z,72.12
2019-01-15T02:04:33.508Z,72.15
2019-01-15T02:07:02.604Z,72.17
2019-01-15T02:09:33.122Z,72.25
2019-01-15T02:12:02.236Z,72.28
2019-01-15T02:14:32.090Z,72.24
2019-01-15T02:17:01.160Z,72.48
2019-01-15T02:19:30.274Z,72.46
2019-01-15T02:21:59.418Z,72.54
2019-01-15T02:24:29.138Z,72.55
2019-01-15T02:26:58.303Z,72.60
2019-01-15T02:29:28.626Z,72.27
2019-01-15T02:32:00.406Z,72.33
2019-01-15T02:34:29.561Z,72.47
2019-01-15T02:36:58.597Z,72.23
2019-01-15T02:39:27.653Z,72.36
2019-01-15T02:41:56.921Z,72.24
2019-01-15T02:44:25.965Z,72.37
2019-01-15T02:46:54.997Z,72.17
2019-01-15T02:49:24.058Z,72.22
2019-01-15T02:51:53.092Z,72.15
2019-01-15T02:54:22.143Z,72.18
2019-01-15T02:56:51.951Z,72.30
2019-01-15T02:59:20.979Z,72.21
2019-01-15T03:01:49.992Z,72.42
2019-01-15T03:04:19.038Z,72.61
2019-01-15T03:06:48.104Z,72.56
2019-01-15T03:09:17.142Z,72.71
2019-01-15T03:11:47.154Z,73.02
2019-01-15T03:14:16.161Z,72.95
2019-01-15T03:16:45.258Z,73.38
2019-01-15T03:19:14.256Z,73.39
2019-01-15T03:21:43.350Z,73.58
2019-01-15T03:24:12.643Z,73.73
2019-01-15T03:26:41.791Z,74.00
2019-01-15T03:29:10.872Z,73.98
2019-01-15T03:31:40.036Z,74.12
2019-01-15T03:34:09.126Z,74.19
2019-01-15T03:36:38.221Z,74.15
2019-01-15T03:39:09.787Z,74.40
2019-01-15T03:41:39.086Z,74.27
2019-01-15T03:44:08.263Z,74.69
2019-01-15T03:46:37.274Z,74.63
2019-01-15T03:49:06.438Z,74.59
2019-01-15T03:51:35.567Z,74.71
2019-01-15T03:54:04.750Z,74.85
2019-01-15T03:56:33.858Z,74.89
2019-01-15T03:59:02.873Z,74.94
2019-01-15T04:01:31.941Z,75.03
2019-01-15T04:04:00.950Z,75.25
2019-01-15T04:06:30.031Z,75.20
2019-01-15T04:08:59.132Z,75.34
2019-01-15T04:11:28.213Z,75.43
2019-01-15T04:13:57.236Z,75.24
2019-01-15T04:16:26.314Z,75.65
2019-01-15T04:18:56.840Z,75.74
2019-01-15T04:21:25.960Z,75.99
2019-01-15T04:23:55.113Z,76.04
2019-01-15T04:26:24.238Z,75.98
2019-01-15T04:28:53.289Z,76.12
2019-01-15T04:31:22.317Z,75.99
2019-01-15T04:33:51.507Z,75.91
2019-01-15T04:36:20.506Z,75.96
2019-01-15T04:38:51.036Z,75.97
2019-01-15T04:41:20.026Z,75.92
2019-01-15T04:43:49.122Z,75.96
2019-01-15T04:46:18.142Z,75.74
2019-01-15T04:48:48.243Z,75.62
2019-01-15T04:51:17.315Z,75.62
2019-01-15T04:53:46.421Z,75.83
2019-01-15T04:56:15.430Z,75.84
2019-01-15T04:58:46.334Z,75.81
2019-01-15T05:01:13.812Z,75.81
2019-01-15T05:03:43.482Z,76.01
2019-01-15T05:06:12.736Z,76.35
2019-01-15T05:08:41.726Z,76.19
2019-01-15T05:11:10.743Z,76.24
2019-01-15T05:13:39.710Z,76.29
2019-01-15T05:16:08.780Z,76.26
2019-01-15T05:18:37.772Z,76.30
2019-01-15T05:21:06.812Z,76.39
2019-01-15T05:23:35.827Z,76.54
2019-01-15T05:26:05.186Z,76.22
2019-01-15T05:28:34.701Z,76.76
2019-01-15T05:31:03.791Z,76.80
2019-01-15T05:33:33.002Z,76.90
2019-01-15T05:36:02.184Z,76.94
2019-01-15T05:38:31.618Z,76.95
2019-01-15T05:41:00.656Z,76.93
2019-01-15T05:43:35.420Z,77.18
2019-01-15T05:45:58.843Z,77.17
2019-01-15T05:48:32.239Z,77.44
2019-01-15T05:51:10.107Z,77.41
2019-01-15T05:53:39.096Z,77.39
2019-01-15T05:56:09.525Z,77.75
2019-01-15T05:58:37.123Z,77.84
2019-01-15T06:01:06.341Z,77.87
2019-01-15T06:03:35.518Z,77.93
2019-01-15T06:06:04.615Z,78.21
2019-01-15T06:08:33.684Z,78.09
2019-01-15T06:11:02.802Z,78.26
2019-01-15T06:13:31.899Z,78.47
2019-01-15T06:16:01.041Z,78.23
2019-01-15T06:18:30.095Z,78.54
2019-01-15T06:20:59.207Z,78.41
2019-01-15T06:23:28.329Z,78.32
2019-01-15T06:25:57.359Z,78.24
2019-01-15T06:28:26.551Z,78.34
2019-01-15T06:30:55.708Z,78.34
2019-01-15T06:33:24.929Z,78.32
2019-01-15T06:35:54.083Z,78.45
2019-01-15T06:38:23.185Z,78.63
2019-01-15T06:40:52.278Z,78.70
2019-01-15T06:43:21.284Z,78.70
2019-01-15T06:45:50.319Z,78.36
2019-01-15T06:48:19.463Z,78.48
2019-01-15T06:50:48.721Z,78.33
2019-01-15T06:53:18.829Z,78.36
2019-01-15T06:55:47.979Z,78.38
2019-01-15T06:58:17.235Z,78.37
2019-01-15T07:00:46.275Z,78.49
2019-01-15T07:03:15.394Z,78.22
2019-01-15T07:05:46.364Z,78.54
2019-01-15T07:08:16.527Z,78.43
2019-01-15T07:10:45.735Z,78.60
2019-01-15T07:13:15.923Z,78.58
2019-01-15T07:15:45.068Z,78.37
2019-01-15T07:18:17.937Z,78.39
2019-01-15T07:20:46.999Z,78.54
2019-01-15T07:23:16.073Z,78.29
2019-01-15T07:25:45.297Z,78.01
2019-01-15T07:28:14.381Z,78.06
2019-01-15T07:30:46.915Z,78.13
2019-01-15T07:33:16.057Z,77.91
2019-01-15T07:35:49.048Z,78.20
2019-01-15T07:38:19.119Z,78.01
2019-01-15T07:40:48.286Z,78.20
2019-01-15T07:43:17.463Z,78.06
2019-01-15T07:45:46.483Z,78.39
2019-01-15T07:48:15.516Z,78.31
2019-01-15T07:50:44.574Z,78.11
2019-01-15T07:53:14.318Z,78.02
2019-01-15T07:55:43.843Z,78.07
2019-01-15T07:58:13.285Z,78.01
2019-01-15T08:00:42.401Z,77.84
2019-01-15T08:03:11.653Z,77.84
2019-01-15T08:05:40.785Z,77.64
2019-01-15T08:08:10.174Z,77.84
2019-01-15T08:10:41.615Z,77.79
2019-01-15T08:13:09.779Z,77.77
2019-01-15T08:15:39.185Z,77.67
2019-01-15T08:18:09.751Z,77.78
2019-01-15T08:20:39.393Z,77.78
2019-01-15T08:23:08.743Z,77.67
2019-01-15T08:25:38.145Z,77.76
2019-01-15T08:28:07.234Z,77.79
2019-01-15T08:30:37.499Z,77.78
2019-01-15T08:33:08.667Z,78.01
2019-01-15T08:35:38.780Z,77.90
2019-01-15T08:38:10.319Z,77.96
2019-01-15T08:40:40.399Z,78.00
2019-01-15T08:43:09.586Z,78.08
2019-01-15T08:45:40.498Z,78.31
2019-01-15T08:48:15.963Z,78.17
2019-01-15T08:50:45.121Z,78.05
2019-01-15T08:53:16.360Z,77.86
2019-01-15T08:55:47.156Z,77.85
2019-01-15T08:58:17.557Z,77.78
2019-01-15T09:00:47.705Z,78.12
2019-01-15T09:03:17.810Z,77.94
2019-01-15T09:05:47.406Z,77.62
2019-01-15T09:08:18.732Z,77.84
2019-01-15T09:10:47.926Z,77.73
2019-01-15T09:13:17.445Z,77.80
2019-01-15T09:15:47.206Z,77.83
2019-01-15T09:18:16.254Z,77.74
2019-01-15T09:20:45.782Z,77.87
2019-01-15T09:23:14.911Z,77.82
2019-01-15T09:25:44.188Z,78.11
2019-01-15T09:28:13.231Z,77.96
2019-01-15T09:30:42.309Z,78.25
2019-01-15T09:33:11.571Z,77.93
2019-01-15T09:35:40.670Z,77.58
2019-01-15T09:38:10.281Z,77.69
2019-01-15T09:40:39.903Z,77.78
2019-01-15T09:43:09.022Z,77.75
2019-01-15T09:45:38.220Z,77.67
2019-01-15T09:48:10.155Z,77.89
2019-01-15T09:50:40.210Z,77.75
2019-01-15T09:53:09.565Z,77.58
2019-01-15T09:55:38.768Z,77.64
2019-01-15T09:58:08.289Z,77.49
2019-01-15T10:00:38.730Z,77.61
2019-01-15T10:03:07.976Z,77.47
2019-01-15T10:05:38.349Z,77.57
2019-01-15T10:08:07.650Z,77.57
2019-01-15T10:10:37.352Z,77.32
2019-01-15T10:13:07.509Z,77.20
2019-01-15T10:15:36.873Z,77.11
2019-01-15T10:18:06.254Z,77.16
2019-01-15T10:20:40.428Z,77.17
2019-01-15T10:23:09.611Z,77.00
2019-01-15T10:25:39.834Z,76.94
2019-01-15T10:28:09.053Z,76.98
2019-01-15T10:30:49.403Z,77.10
2019-01-15T10:33:37.435Z,76.83
2019-01-15T10:36:05.044Z,76.83
2019-01-15T10:38:34.559Z,76.72
2019-01-15T10:41:04.725Z,76.69
2019-01-15T10:43:34.832Z,76.79
2019-01-15T10:46:05.008Z,76.80
2019-01-15T10:48:34.166Z,76.70
2019-01-15T10:51:03.244Z,76.58
2019-01-15T10:53:32.359Z,76.41
2019-01-15T10:56:01.506Z,76.53
2019-01-15T10:58:30.700Z,76.62
2019-01-15T11:01:01.431Z,76.47
2019-01-15T11:03:30.643Z,76.51
2019-01-15T11:05:59.801Z,76.31
2019-01-15T11:08:28.853Z,76.30
2019-01-15T11:10:58.762Z,76.31
2019-01-15T11:13:28.526Z,76.00
2019-01-15T11:15:57.750Z,75.98
2019-01-15T11:18:27.006Z,76.05
2019-01-15T11:20:56.148Z,75.99
2019-01-15T11:23:25.654Z,75.92
2019-01-15T11:25:55.772Z,75.87
2019-01-15T11:28:26.007Z,75.79
2019-01-15T11:30:55.267Z,75.62
2019-01-15T11:33:25.209Z,75.55
2019-01-15T11:35:54.322Z,75.54
2019-01-15T11:38:23.607Z,75.61
2019-01-15T11:40:54.665Z,75.28
2019-01-15T11:43:23.901Z,75.52
2019-01-15T11:45:54.352Z,75.23
2019-01-15T11:48:23.589Z,75.17
2019-01-15T11:50:52.811Z,75.19
2019-01-15T11:53:23.154Z,75.11
2019-01-15T11:55:52.347Z,75.13
2019-01-15T11:58:21.515Z,74.83
2019-01-15T12:01:58.619Z,74.89
2019-01-15T12:06:45.579Z,74.96
2019-01-15T12:09:21.793Z,75.41
2019-01-15T12:12:10.150Z,75.60
2019-01-15T12:14:45.097Z,75.98
2019-01-15T12:17:20.345Z,76.00
2019-01-15T12:19:53.680Z,76.13
2019-01-15T12:23:03.279Z,76.24
2019-01-15T12:25:40.252Z,76.11
2019-01-15T12:28:45.942Z,76.20
2019-01-15T12:32:20.656Z,76.35
2019-01-15T12:34:59.639Z,76.37
2019-01-15T12:38:06.824Z,76.38
2019-01-15T12:40:41.240Z,76.13
2019-01-15T12:43:14.531Z,76.48
2019-01-15T12:47:53.608Z,76.50
2019-01-15T12:50:35.771Z,76.59
2019-01-15T12:54:07.781Z,76.80
2019-01-15T12:56:42.919Z,76.83
2019-01-15T12:59:54.016Z,76.55
2019-01-15T13:02:28.031Z,76.67
2019-01-15T13:05:06.568Z,76.40
2019-01-15T13:07:49.794Z,76.84
2019-01-15T13:10:24.216Z,77.00
2019-01-15T13:12:58.811Z,76.99
2019-01-15T13:17:36.473Z,76.85
2019-01-15T13:20:17.316Z,77.09
2019-01-15T13:22:55.405Z,76.94
2019-01-15T13:25:39.436Z,77.01
2019-01-15T13:28:14.593Z,77.08
2019-01-15T13:30:56.369Z,77.05
2019-01-15T13:35:36.057Z,76.99
2019-01-15T13:39:08.998Z,76.74
2019-01-15T13:41:43.146Z,76.66
2019-01-15T13:46:24.002Z,76.43
2019-01-15T13:51:02.694Z,76.43
2019-01-15T13:55:40.571Z,76.46
2019-01-15T13:58:18.680Z,76.40
2019-01-15T14:01:09.255Z,76.42
2019-01-15T14:04:19.933Z,76.37
2019-01-15T14:07:56.312Z,76.30
2019-01-15T14:10:35.413Z,76.46
2019-01-15T14:13:23.648Z,76.27
2019-01-15T14:15:58.380Z,76.45
2019-01-15T14:19:05.613Z,76.23
2019-01-15T14:23:43.692Z,76.20
2019-01-15T14:26:17.947Z,76.20
2019-01-15T14:29:00.332Z,76.15
2019-01-15T14:31:49.311Z,76.21
2019-01-15T14:34:25.560Z,76.20
2019-01-15T14:37:09.744Z,76.14
2019-01-15T14:41:50.123Z,76.29
2019-01-15T14:45:28.979Z,76.11
2019-01-15T14:48:14.172Z,76.21
2019-01-15T14:51:55.400Z,76.07
2019-01-15T14:55:34.372Z,75.75
2019-01-15T15:00:11.892Z,75.85
2019-01-15T15:02:46.021Z,75.85
2019-01-15T15:05:21.295Z,75.71
2019-01-15T15:07:57.205Z,75.86
2019-01-15T15:10:31.282Z,75.54
2019-01-15T15:14:11.225Z,75.42
2019-01-15T15:18:51.361Z,75.67
2019-01-15T15:21:34.681Z,75.74
2019-01-15T15:24:45.097Z,75.86
2019-01-15T15:28:22.882Z,76.07
2019-01-15T15:30:57.125Z,75.67
2019-01-15T15:33:31.913Z,75.77
2019-01-15T15:37:05.673Z,75.82
2019-01-15T15:40:38.264Z,75.88
2019-01-15T15:45:15.349Z,75.75
2019-01-15T15:49:51.948Z,75.85
2019-01-15T15:54:31.792Z,75.70
2019-01-15T15:57:06.240Z,76.08
2019-01-15T15:59:40.337Z,76.13
2019-01-15T16:02:15.122Z,76.10
2019-01-15T16:04:50.790Z,76.11
2019-01-15T16:09:28.610Z,76.34
2019-01-15T16:12:04.643Z,76.30
2019-01-15T16:14:47.869Z,76.24
2019-01-15T16:17:27.135Z,76.14
2019-01-15T16:21:04.682Z,75.89
2019-01-15T16:23:44.139Z,76.19
2019-01-15T16:26:18.268Z,76.06
2019-01-15T16:28:54.266Z,76.22
2019-01-15T16:31:28.559Z,76.10
2019-01-15T16:35:06.438Z,75.80
2019-01-15T16:37:40.193Z,76.06
2019-01-15T16:40:20.958Z,76.21
2019-01-15T16:43:28.317Z,76.31
2019-01-15T16:46:06.708Z,76.55
2019-01-15T16:48:40.741Z,76.39
2019-01-15T16:51:15.055Z,76.44
2019-01-15T16:54:46.988Z,76.57
2019-01-15T16:57:25.044Z,76.48
2019-01-15T16:59:59.132Z,76.55
2019-01-15T17:02:33.722Z,76.37
2019-01-15T17:05:09.691Z,76.73
2019-01-15T17:07:51.681Z,76.50
2019-01-15T17:10:26.783Z,76.49
2019-01-15T17:13:04.910Z,76.58
2019-01-15T17:15:57.490Z,76.36
2019-01-15T17:18:31.623Z,76.36
2019-01-15T17:21:06.157Z,76.26
2019-01-15T17:23:41.589Z,76.30
2019-01-15T17:26:51.745Z,76.17
2019-01-15T17:29:25.934Z,76.18
2019-01-15T17:32:35.460Z,76.20
2019-01-15T17:35:14.021Z,76.05
2019-01-15T17:37:52.155Z,76.17
2019-01-15T17:40:25.449Z,76.18
2019-01-15T17:43:01.013Z,76.32
2019-01-15T17:45:38.093Z,76.14
2019-01-15T17:49:14.176Z,76.17
2019-01-15T17:51:59.184Z,76.32
2019-01-15T17:55:39.192Z,76.11
2019-01-15T17:58:30.384Z,76.43
2019-01-15T18:01:09.740Z,76.38
2019-01-15T18:03:53.124Z,76.23
2019-01-15T18:06:22.683Z,76.26
2019-01-15T18:08:56.754Z,76.46
2019-01-15T18:11:38.186Z,76.28
2019-01-15T18:14:12.158Z,76.30
2019-01-15T18:18:55.126Z,76.62
2019-01-15T18:21:35.065Z,76.42
2019-01-15T18:24:09.286Z,76.58
2019-01-15T18:28:46.900Z,76.59
2019-01-15T18:32:22.756Z,76.67
2019-01-15T18:35:01.841Z,76.95
2019-01-15T18:37:36.960Z,77.05
2019-01-15T18:40:29.060Z,77.08
2019-01-15T18:43:06.015Z,77.06
2019-01-15T18:46:38.829Z,77.14
2019-01-15T18:49:12.798Z,77.14
2019-01-15T18:51:46.761Z,77.24
2019-01-15T18:54:21.584Z,76.99
2019-01-15T18:56:57.895Z,77.06
2019-01-15T18:59:32.135Z,77.13
2019-01-15T19:02:06.473Z,77.20
2019-01-15T19:04:49.920Z,77.23
2019-01-15T19:07:24.432Z,77.10
2019-01-15T19:11:01.632Z,77.29
2019-01-15T19:13:46.420Z,77.11
2019-01-15T19:16:20.606Z,77.34
2019-01-15T19:18:55.438Z,77.26
2019-01-15T19:22:32.343Z,77.47
2019-01-15T19:25:09.605Z,77.40
2019-01-15T19:27:46.843Z,77.40
2019-01-15T19:30:53.888Z,77.41
2019-01-15T19:33:32.319Z,77.48
2019-01-15T19:36:06.591Z,77.51
2019-01-15T19:38:41.765Z,77.58
2019-01-15T19:41:23.955Z,77.63
2019-01-15T19:43:58.196Z,77.70
2019-01-15T19:46:32.501Z,77.78
2019-01-15T19:51:09.313Z,77.81
2019-01-15T19:53:53.834Z,77.80
2019-01-15T19:57:01.387Z,77.68
2019-01-15T19:59:34.927Z,77.79
2019-01-15T20:02:27.018Z,77.86
2019-01-15T20:05:03.281Z,77.97
2019-01-15T20:07:38.893Z,77.95
2019-01-15T20:10:51.164Z,77.74
2019-01-15T20:13:35.226Z,78.23
2019-01-15T20:16:21.603Z,78.35
2019-01-15T20:21:03.063Z,78.43
2019-01-15T20:23:40.100Z,78.35
2019-01-15T20:30:30.843Z,78.61
2019-01-15T20:35:08.706Z,78.54
2019-01-15T20:37:43.655Z,78.78
2019-01-15T20:40:18.295Z,78.83
2019-01-15T20:43:52.367Z,78.75
2019-01-15T20:46:34.974Z,78.90
2019-01-15T20:49:13.107Z,79.14
2019-01-15T20:56:34.811Z,79.54
2019-01-15T21:01:11.793Z,79.53
2019-01-15T21:03:46.587Z,79.62
2019-01-15T21:06:20.972Z,79.80
2019-01-15T21:09:02.322Z,79.85
2019-01-15T21:11:36.967Z,79.85
2019-01-15T21:15:12.428Z,79.96
2019-01-15T21:17:48.954Z,79.97
2019-01-15T21:21:23.715Z,80.03
2019-01-15T21:23:57.039Z,80.17
2019-01-15T21:26:38.000Z,79.93
2019-01-15T21:30:10.976Z,80.11
2019-01-15T21:34:49.549Z,80.06
2019-01-15T21:37:29.771Z,80.15
2019-01-15T21:40:04.175Z,79.96
2019-01-15T21:43:42.326Z,79.95
2019-01-15T21:46:18.537Z,80.11
2019-01-15T21:48:52.989Z,80.40
2019-01-15T21:51:31.286Z,80.28
2019-01-15T21:54:39.102Z,80.20
2019-01-15T21:57:22.183Z,80.17
2019-01-15T21:59:57.521Z,80.12
2019-01-15T22:02:34.546Z,80.06
2019-01-15T22:06:08.477Z,80.20
2019-01-15T22:08:42.631Z,80.03
2019-01-15T22:11:19.870Z,80.38
2019-01-15T22:13:54.215Z,80.20
2019-01-15T22:16:35.171Z,80.33
2019-01-15T22:19:41.763Z,80.45
2019-01-15T22:22:21.303Z,80.47
2019-01-15T22:24:58.767Z,80.57
2019-01-15T22:29:35.743Z,80.51
2019-01-15T22:32:12.911Z,80.63
2019-01-15T22:34:47.636Z,80.65
2019-01-15T22:38:22.043Z,80.76
2019-01-15T22:40:58.006Z,80.74
2019-01-15T22:43:46.245Z,80.85
2019-01-15T22:46:22.874Z,80.86
2019-01-15T22:49:02.916Z,80.82
2019-01-15T22:51:41.374Z,80.71
2019-01-15T22:54:16.478Z,80.70
2019-01-15T22:58:56.258Z,80.64
2019-01-15T23:01:34.965Z,80.40
2019-01-15T23:04:14.324Z,80.46
2019-01-15T23:06:49.215Z,80.73
2019-01-15T23:09:23.437Z,80.49
2019-01-15T23:11:57.729Z,80.59
2019-01-15T23:15:38.844Z,80.71
2019-01-15T23:18:13.176Z,80.68
2019-01-15T23:20:47.341Z,80.71
2019-01-15T23:23:36.203Z,80.92
2019-01-15T23:26:13.300Z,81.17
2019-01-15T23:28:48.482Z,81.25
2019-01-15T23:33:29.310Z,81.40
2019-01-15T23:36:02.390Z,81.60
2019-01-15T23:38:47.524Z,81.70
2019-01-15T23:43:26.295Z,81.89
2019-01-15T23:46:08.500Z,82.22
2019-01-15T23:48:51.174Z,82.56
2019-01-15T23:51:31.065Z,82.63
2019-01-15T23:56:09.463Z,82.79
2019-01-15T23:59:46.366Z,82.96
